createdAt,value
2023-02-13T00:00:07.000Z,12.2
2023-02-13T00:01:24.000Z,12.8
2023-02-13T00:02:39.000Z,12.2
2023-02-13T00:03:55.000Z,12.8
2023-02-13T00:05:11.000Z,11.2
2023-02-13T00:06:28.000Z,12.3
2023-02-13T00:07:44.000Z,12
2023-02-13T00:09:00.000Z,11.2
2023-02-13T00:10:17.000Z,12
2023-02-13T00:11:32.705Z,12
2023-02-13T00:12:47.000Z,11.6
2023-02-13T00:14:04.000Z,11.5
2023-02-13T00:15:19.000Z,11.9
2023-02-13T00:16:34.000Z,11.6
2023-02-13T00:17:50.000Z,11.5
2023-02-13T00:19:07.000Z,11.8
2023-02-13T00:20:23.000Z,12
2023-02-13T00:21:39.000Z,11.1
2023-02-13T00:22:56.000Z,12.4
2023-02-13T00:24:12.000Z,11.6
2023-02-13T00:25:28.000Z,12.7
2023-02-13T00:26:44.000Z,11.7
2023-02-13T00:28:01.000Z,12.1
2023-02-13T00:29:17.762Z,11.7
2023-02-13T00:30:33.000Z,12.1
2023-02-13T00:31:50.000Z,11.8
2023-02-13T00:33:05.000Z,11
2023-02-13T00:34:21.000Z,12.8
2023-02-13T00:35:37.000Z,12
2023-02-13T00:36:54.000Z,12.2
2023-02-13T00:38:10.000Z,12.8
2023-02-13T00:39:26.000Z,12.2
2023-02-13T00:40:43.000Z,11.6
2023-02-13T00:41:58.000Z,11.6
2023-02-13T00:43:13.000Z,11.7
2023-02-13T00:44:30.000Z,12.1
2023-02-13T00:45:46.573Z,11.6
2023-02-13T00:47:02.000Z,12.1
2023-02-13T00:48:17.000Z,11.8
2023-02-13T00:49:33.000Z,12.1
2023-02-13T00:50:49.000Z,12.8
2023-02-13T00:52:05.000Z,11.6
2023-02-13T00:53:22.000Z,11.8
2023-02-13T00:54:38.000Z,12.7
2023-02-13T00:55:54.000Z,13.3
2023-02-13T00:57:10.000Z,12.9
2023-02-13T00:58:27.000Z,12.4
2023-02-13T00:59:43.000Z,11.9
2023-02-13T01:00:59.000Z,12.5
2023-02-13T01:02:16.000Z,12.6
2023-02-13T01:03:32.000Z,12.2
2023-02-13T01:04:48.000Z,12.7
2023-02-13T01:06:03.000Z,12.4
2023-02-13T01:07:20.000Z,11.5
2023-02-13T01:08:36.000Z,11.9
2023-02-13T01:09:52.000Z,12.2
2023-02-13T01:11:09.000Z,11.2
2023-02-13T01:12:25.000Z,11.4
2023-02-13T01:13:41.000Z,11.3
2023-02-13T01:14:57.000Z,12.5
2023-02-13T01:16:12.000Z,12.3
2023-02-13T01:17:28.000Z,12
2023-02-13T01:18:43.000Z,12.3
2023-02-13T01:19:59.000Z,11.9
2023-02-13T01:21:15.000Z,11.6
2023-02-13T01:22:31.000Z,11.6
2023-02-13T01:23:48.000Z,12.4
2023-02-13T01:25:04.000Z,11.7
2023-02-13T01:26:20.000Z,12.4
2023-02-13T01:27:36.000Z,12.7
2023-02-13T01:28:53.000Z,11.6
2023-02-13T01:30:09.000Z,11.3
2023-02-13T01:31:25.000Z,11.7
2023-02-13T01:32:42.000Z,12.4
2023-02-13T01:33:58.618Z,12.3
2023-02-13T01:35:14.000Z,12.7
2023-02-13T01:36:30.215Z,11.2
2023-02-13T01:37:46.000Z,11.9
2023-02-13T01:39:02.000Z,11.8
2023-02-13T01:40:18.000Z,11.5
2023-02-13T01:41:35.000Z,13.1
2023-02-13T01:42:51.653Z,11.4
2023-02-13T01:44:07.000Z,11.8
2023-02-13T01:45:23.000Z,11.8
2023-02-13T01:46:38.000Z,11.7
2023-02-13T01:47:54.000Z,10.7
2023-02-13T01:49:09.000Z,11.2
2023-02-13T01:50:25.000Z,11.1
2023-02-13T01:51:41.000Z,10.8
2023-02-13T01:52:57.000Z,10.8
2023-02-13T01:54:14.000Z,11.7
2023-02-13T01:55:30.000Z,11
2023-02-13T01:56:46.000Z,10.4
2023-02-13T01:58:02.000Z,9.8
2023-02-13T01:59:19.472Z,10.5
2023-02-13T02:00:35.000Z,11
2023-02-13T02:01:51.000Z,10
2023-02-13T02:03:08.000Z,9.8
2023-02-13T02:04:24.000Z,10.5
2023-02-13T02:05:40.000Z,10.9
2023-02-13T02:06:55.000Z,10
2023-02-13T02:08:12.000Z,10.3
2023-02-13T02:09:27.000Z,10.4
2023-02-13T02:10:43.000Z,10.3
2023-02-13T02:12:00.394Z,10.2
2023-02-13T02:13:16.000Z,9.4
2023-02-13T02:14:32.000Z,9.5
2023-02-13T02:15:48.000Z,9.4
2023-02-13T02:17:03.000Z,9.3
2023-02-13T02:18:18.000Z,10.1
2023-02-13T02:19:33.000Z,9.6
2023-02-13T02:20:50.000Z,9.5
2023-02-13T02:22:06.000Z,9.4
2023-02-13T02:23:23.083Z,8.9
2023-02-13T02:24:39.361Z,8.7
2023-02-13T02:25:55.000Z,9.8
2023-02-13T02:27:11.000Z,8.7
2023-02-13T02:28:27.000Z,9.9
2023-02-13T02:29:44.000Z,8.9
2023-02-13T02:31:00.000Z,8.9
2023-02-13T02:32:16.000Z,9.6
2023-02-13T02:33:33.000Z,8.7
2023-02-13T02:34:49.000Z,9.2
2023-02-13T02:36:04.000Z,8.5
2023-02-13T02:37:21.220Z,8.1
2023-02-13T02:38:37.000Z,8.5
2023-02-13T02:39:53.000Z,8
2023-02-13T02:41:09.000Z,8.6
2023-02-13T02:42:26.000Z,9.4
2023-02-13T02:43:42.000Z,8.5
2023-02-13T02:44:58.000Z,8.2
2023-02-13T02:46:15.000Z,9.1
2023-02-13T02:47:31.000Z,9.4
2023-02-13T02:48:47.000Z,8.1
2023-02-13T02:50:03.000Z,8.8
2023-02-13T02:51:20.000Z,8.6
2023-02-13T02:52:35.000Z,8.8
2023-02-13T02:53:51.000Z,8.9
2023-02-13T02:55:08.000Z,8.3
2023-02-13T02:56:24.000Z,8.3
2023-02-13T02:57:40.000Z,7.8
2023-02-13T02:58:56.000Z,8.2
2023-02-13T03:00:13.000Z,8.5
2023-02-13T03:01:29.000Z,8.3
2023-02-13T03:02:45.000Z,9.5
2023-02-13T03:04:02.000Z,8.4
2023-02-13T03:05:18.000Z,8.4
2023-02-13T03:06:34.000Z,8.1
2023-02-13T03:07:50.000Z,8.6
2023-02-13T03:09:06.000Z,8.4
2023-02-13T03:10:21.000Z,7.4
2023-02-13T03:11:36.000Z,8.3
2023-02-13T03:12:52.000Z,8.1
2023-02-13T03:14:07.000Z,8.8
2023-02-13T03:15:23.968Z,7.6
2023-02-13T03:16:40.000Z,8
2023-02-13T03:17:56.000Z,8.3
2023-02-13T03:19:12.000Z,7.8
2023-02-13T03:20:28.000Z,7.6
2023-02-13T03:21:45.000Z,8
2023-02-13T03:23:01.000Z,8.5
2023-02-13T03:24:17.000Z,8
2023-02-13T03:25:34.000Z,7.4
2023-02-13T03:26:50.000Z,8
2023-02-13T03:28:06.000Z,7.6
2023-02-13T03:29:23.210Z,7.4
2023-02-13T03:30:38.458Z,7.1
2023-02-13T03:31:54.000Z,7.8
2023-02-13T03:33:10.000Z,8.1
2023-02-13T03:34:27.000Z,7.8
2023-02-13T03:35:43.000Z,7.4
2023-02-13T03:36:59.000Z,8
2023-02-13T03:38:15.000Z,8
2023-02-13T03:39:31.000Z,7.7
2023-02-13T03:40:46.000Z,7.9
2023-02-13T03:42:02.000Z,7.2
2023-02-13T03:43:18.000Z,7.4
2023-02-13T03:44:33.000Z,7.2
2023-02-13T03:45:49.000Z,7.9
2023-02-13T03:47:06.000Z,7.2
2023-02-13T03:48:22.000Z,7.9
2023-02-13T03:49:38.000Z,6.9
2023-02-13T03:50:54.000Z,7.5
2023-02-13T03:52:11.000Z,7.7
2023-02-13T03:53:27.699Z,7.2
2023-02-13T03:54:43.000Z,7.8
2023-02-13T03:56:00.301Z,7.6
2023-02-13T03:57:16.000Z,7.7
2023-02-13T03:58:32.839Z,6.9
2023-02-13T03:59:48.000Z,8.1
2023-02-13T04:01:04.000Z,7.6
2023-02-13T04:02:20.000Z,7.2
2023-02-13T04:03:36.000Z,7.5
2023-02-13T04:04:53.000Z,7.5
2023-02-13T04:06:09.000Z,7.7
2023-02-13T04:07:25.000Z,6.6
2023-02-13T04:08:41.000Z,7
2023-02-13T04:09:57.000Z,6.7
2023-02-13T04:11:12.000Z,7.1
2023-02-13T04:12:27.000Z,7.1
2023-02-13T04:13:43.000Z,7.2
2023-02-13T04:14:59.000Z,7.3
2023-02-13T04:16:15.000Z,8.2
2023-02-13T04:17:32.000Z,7.6
2023-02-13T04:18:48.000Z,7.2
2023-02-13T04:20:04.000Z,7.3
2023-02-13T04:21:20.000Z,7.7
2023-02-13T04:22:37.000Z,7.2
2023-02-13T04:23:53.000Z,7.2
2023-02-13T04:25:09.000Z,7
2023-02-13T04:26:26.263Z,6.8
2023-02-13T04:27:42.000Z,7.1
2023-02-13T04:28:58.000Z,7.2
2023-02-13T04:30:13.000Z,7.2
2023-02-13T04:31:30.451Z,7.5
2023-02-13T04:32:46.718Z,7.3
2023-02-13T04:34:02.000Z,6.6
2023-02-13T04:35:19.000Z,6.7
2023-02-13T04:36:35.000Z,7.5
2023-02-13T04:37:51.000Z,7.7
2023-02-13T04:39:07.000Z,7.3
2023-02-13T04:40:24.000Z,7
2023-02-13T04:41:40.000Z,7.5
2023-02-13T04:42:56.000Z,6.9
2023-02-13T04:44:13.338Z,7.3
2023-02-13T04:45:29.000Z,6.6
2023-02-13T04:46:44.000Z,7.7
2023-02-13T04:48:00.000Z,6.4
2023-02-13T04:49:17.000Z,7.8
2023-02-13T04:50:33.000Z,7
2023-02-13T04:51:49.000Z,7.3
2023-02-13T04:53:06.349Z,7.5
2023-02-13T04:54:22.000Z,7.1
2023-02-13T04:55:38.000Z,6.9
2023-02-13T04:56:54.000Z,6.9
2023-02-13T04:58:11.000Z,7.4
2023-02-13T04:59:27.000Z,7.2
2023-02-13T05:00:43.000Z,6.3
2023-02-13T05:02:00.000Z,7
2023-02-13T05:03:15.000Z,7.2
2023-02-13T05:04:31.000Z,7.5
2023-02-13T05:05:47.000Z,7.2
2023-02-13T05:07:04.000Z,7.4
2023-02-13T05:08:20.797Z,7.7
2023-02-13T05:09:36.000Z,7
2023-02-13T05:10:53.000Z,7.1
2023-02-13T05:12:09.000Z,6.5
2023-02-13T05:13:25.000Z,7.4
2023-02-13T05:14:42.000Z,6.9
2023-02-13T05:15:58.000Z,7.5
2023-02-13T05:17:14.000Z,7.8
2023-02-13T05:18:30.000Z,7.7
2023-02-13T05:19:46.000Z,7
2023-02-13T05:21:02.000Z,6.5
2023-02-13T05:22:19.010Z,7.9
2023-02-13T05:23:35.000Z,7.5
2023-02-13T05:24:51.000Z,7.7
2023-02-13T05:26:07.000Z,7.5
2023-02-13T05:27:23.000Z,6.6
2023-02-13T05:28:40.000Z,7.5
2023-02-13T05:29:56.000Z,7.9
2023-02-13T05:31:12.000Z,6.5
2023-02-13T05:32:29.000Z,7.1
2023-02-13T05:33:45.000Z,7
2023-02-13T05:35:01.879Z,7.7
2023-02-13T05:36:16.000Z,6.7
2023-02-13T05:37:33.000Z,6.8
2023-02-13T05:38:49.000Z,7.6
2023-02-13T05:40:05.000Z,7.1
2023-02-13T05:41:22.307Z,7.3
2023-02-13T05:42:38.000Z,6.7
2023-02-13T05:43:54.000Z,6.9
2023-02-13T05:45:10.000Z,7.1
2023-02-13T05:46:27.000Z,7.1
2023-02-13T05:47:43.000Z,6.7
2023-02-13T05:48:59.000Z,7.1
2023-02-13T05:50:16.000Z,6.7
2023-02-13T05:51:32.000Z,7.3
2023-02-13T05:52:47.000Z,7
2023-02-13T05:54:03.000Z,7.2
2023-02-13T05:55:20.000Z,7.1
2023-02-13T05:56:36.000Z,6.8
2023-02-13T05:57:52.000Z,7.3
2023-02-13T05:59:09.000Z,7.5
2023-02-13T06:00:25.000Z,6.6
2023-02-13T06:01:41.000Z,7.5
2023-02-13T06:02:57.000Z,6.9
2023-02-13T06:04:14.000Z,7.1
2023-02-13T06:05:30.000Z,7.2
2023-02-13T06:06:46.000Z,7.5
2023-02-13T06:08:03.000Z,6.8
2023-02-13T06:09:18.000Z,6.8
2023-02-13T06:10:34.000Z,7.1
2023-02-13T06:11:51.242Z,6.8
2023-02-13T06:13:07.535Z,7.2
2023-02-13T06:14:23.000Z,7.3
2023-02-13T06:15:38.000Z,7.1
2023-02-13T06:16:54.000Z,6.7
2023-02-13T06:18:10.000Z,7.2
2023-02-13T06:19:25.000Z,7.1
2023-02-13T06:20:41.000Z,7.3
2023-02-13T06:21:57.000Z,7.5
2023-02-13T06:23:13.851Z,6.8
2023-02-13T06:24:28.000Z,7.4
2023-02-13T06:25:45.000Z,7.3
2023-02-13T06:27:01.000Z,7.6
2023-02-13T06:28:17.000Z,7.3
2023-02-13T06:29:34.000Z,7.4
2023-02-13T06:30:50.000Z,6.9
2023-02-13T06:32:06.000Z,7.7
2023-02-13T06:33:22.000Z,7.2
2023-02-13T06:34:38.000Z,7.5
2023-02-13T06:35:55.000Z,6.9
2023-02-13T06:37:11.000Z,7.2
2023-02-13T06:38:27.000Z,6.9
2023-02-13T06:39:43.000Z,7.3
2023-02-13T06:40:59.000Z,7.9
2023-02-13T06:42:15.000Z,7.4
2023-02-13T06:43:31.000Z,7
2023-02-13T06:44:47.000Z,7.3
2023-02-13T06:46:03.000Z,7.5
2023-02-13T06:47:18.000Z,6.7
2023-02-13T06:48:34.000Z,6.9
2023-02-13T06:49:50.000Z,6.9
2023-02-13T06:51:06.000Z,7.2
2023-02-13T06:52:21.000Z,7
2023-02-13T06:53:37.000Z,7.8
2023-02-13T06:54:53.000Z,7.4
2023-02-13T06:56:10.000Z,7.1
2023-02-13T06:57:26.000Z,6.9
2023-02-13T06:58:42.000Z,7.2
2023-02-13T06:59:58.000Z,7.5
2023-02-13T07:01:14.000Z,7.3
2023-02-13T07:02:31.000Z,7.7
2023-02-13T07:03:47.665Z,7.4
2023-02-13T07:05:03.000Z,7.4
2023-02-13T07:06:19.000Z,7.5
2023-02-13T07:07:36.000Z,7.5
2023-02-13T07:08:51.000Z,6.9
2023-02-13T07:10:07.000Z,7.4
2023-02-13T07:11:23.000Z,7.2
2023-02-13T07:12:40.000Z,7.7
2023-02-13T07:13:56.000Z,7.6
2023-02-13T07:15:12.000Z,6.8
2023-02-13T07:16:28.000Z,7.7
2023-02-13T07:17:45.000Z,8
2023-02-13T07:19:01.000Z,7.1
2023-02-13T07:20:17.000Z,7.5
2023-02-13T07:21:33.000Z,7.1
2023-02-13T07:22:49.000Z,7.6
2023-02-13T07:24:06.000Z,7.4
2023-02-13T07:25:21.000Z,7.5
2023-02-13T07:26:37.000Z,7.7
2023-02-13T07:27:53.000Z,7.6
2023-02-13T07:29:10.360Z,7.7
2023-02-13T07:30:26.000Z,7.8
2023-02-13T07:31:42.000Z,7.7
2023-02-13T07:32:58.000Z,7.2
2023-02-13T07:34:15.000Z,8
2023-02-13T07:35:31.000Z,8.1
2023-02-13T07:36:47.000Z,7.5
2023-02-13T07:38:03.000Z,8.4
2023-02-13T07:39:20.247Z,8.5
2023-02-13T07:40:36.461Z,7.9
2023-02-13T07:43:07.000Z,7.5
2023-02-13T07:44:23.000Z,7.5
2023-02-13T07:45:40.418Z,8.5
2023-02-13T07:46:56.000Z,7.9
2023-02-13T07:48:12.886Z,8.1
2023-02-13T07:49:28.000Z,8.6
2023-02-13T07:50:45.000Z,8.6
2023-02-13T07:52:01.000Z,8.1
2023-02-13T07:53:17.000Z,8.3
2023-02-13T07:54:33.000Z,8.5
2023-02-13T07:55:50.000Z,8
2023-02-13T07:57:06.000Z,8.8
2023-02-13T07:58:21.000Z,8.2
2023-02-13T07:59:37.000Z,8.8
2023-02-13T08:00:53.000Z,8.1
2023-02-13T08:02:10.000Z,8
2023-02-13T08:03:26.000Z,8.4
2023-02-13T08:04:42.000Z,7.6
2023-02-13T08:05:58.000Z,8.1
2023-02-13T08:07:15.458Z,7.9
2023-02-13T08:08:31.620Z,8.3
2023-02-13T08:09:47.000Z,7.2
2023-02-13T08:11:03.000Z,8.1
2023-02-13T08:12:20.000Z,7.3
2023-02-13T08:13:36.000Z,7.8
2023-02-13T08:14:51.000Z,7.2
2023-02-13T08:16:07.000Z,7.3
2023-02-13T08:17:24.000Z,7.4
2023-02-13T08:18:40.000Z,6.9
2023-02-13T08:19:56.000Z,7.2
2023-02-13T08:21:12.000Z,7.3
2023-02-13T08:22:28.000Z,7.3
2023-02-13T08:23:45.000Z,7.3
2023-02-13T08:25:01.000Z,6.8
2023-02-13T08:26:17.000Z,7.5
2023-02-13T08:27:33.000Z,6.9
2023-02-13T08:28:50.000Z,6.7
2023-02-13T08:30:05.000Z,6.9
2023-02-13T08:31:20.000Z,6.9
2023-02-13T08:32:35.000Z,6.8
2023-02-13T08:33:51.000Z,7.4
2023-02-13T08:35:07.000Z,6.3
2023-02-13T08:36:23.000Z,6.6
2023-02-13T08:37:39.000Z,7.4
2023-02-13T08:38:56.000Z,7.7
2023-02-13T08:40:12.000Z,7.5
2023-02-13T08:41:28.000Z,7.1
2023-02-13T08:42:44.000Z,6.9
2023-02-13T08:44:01.000Z,7
2023-02-13T08:45:17.523Z,6.9
2023-02-13T08:46:33.744Z,7.3
2023-02-13T08:47:49.000Z,7.5
2023-02-13T08:49:05.000Z,7.9
2023-02-13T08:50:21.000Z,7.3
2023-02-13T08:51:37.000Z,9.5
2023-02-13T08:52:53.000Z,8.9
2023-02-13T08:54:09.000Z,8.3
2023-02-13T08:55:26.000Z,8.5
2023-02-13T08:56:42.000Z,8.8
2023-02-13T08:57:58.000Z,7.8
2023-02-13T08:59:13.000Z,8.3
2023-02-13T09:00:29.000Z,8.6
2023-02-13T09:01:45.625Z,8.4
2023-02-13T09:03:01.000Z,7.7
2023-02-13T09:04:17.000Z,8.8
2023-02-13T09:05:34.000Z,8.6
2023-02-13T09:06:50.000Z,8.8
2023-02-13T09:08:06.000Z,8.7
2023-02-13T09:09:22.000Z,9
2023-02-13T09:11:54.000Z,9.6
2023-02-13T09:13:09.000Z,9.2
2023-02-13T09:14:24.000Z,9
2023-02-13T09:15:40.000Z,7.7
2023-02-13T09:16:57.000Z,8.9
2023-02-13T09:18:13.000Z,8.7
2023-02-13T09:19:29.944Z,8.8
2023-02-13T09:20:46.188Z,9.2
2023-02-13T09:22:02.000Z,8.3
2023-02-13T09:24:34.000Z,8.1
2023-02-13T09:25:50.000Z,8.8
2023-02-13T09:27:07.000Z,8.8
2023-02-13T09:28:23.000Z,9
2023-02-13T09:29:39.000Z,9.2
2023-02-13T09:30:55.037Z,8.4
2023-02-13T09:32:11.000Z,8.2
2023-02-13T09:33:27.000Z,7.8
2023-02-13T09:34:43.000Z,7.8
2023-02-13T09:35:59.000Z,7.7
2023-02-13T09:37:15.000Z,8
2023-02-13T09:38:32.000Z,7.8
2023-02-13T09:39:48.000Z,7.4
2023-02-13T09:41:04.000Z,8.2
2023-02-13T09:42:20.000Z,8.4
2023-02-13T09:43:37.000Z,8.2
2023-02-13T09:44:53.000Z,7.9
2023-02-13T09:46:10.070Z,8.5
2023-02-13T09:47:25.000Z,8.2
2023-02-13T09:48:41.581Z,7.9
2023-02-13T09:49:57.000Z,8.2
2023-02-13T09:51:13.000Z,7.5
2023-02-13T09:52:29.000Z,8.5
2023-02-13T09:53:46.000Z,8.7
2023-02-13T09:55:02.000Z,8.6
2023-02-13T09:56:18.000Z,9.4
2023-02-13T09:57:34.000Z,8.2
2023-02-13T09:58:50.000Z,9.7
2023-02-13T10:00:07.000Z,8.9
2023-02-13T10:01:23.000Z,8.5
2023-02-13T10:02:39.000Z,8.1
2023-02-13T10:03:55.000Z,7.7
2023-02-13T10:05:11.000Z,8.4
2023-02-13T10:06:27.000Z,8.5
2023-02-13T10:07:43.000Z,7.9
2023-02-13T10:08:59.000Z,7.6
2023-02-13T10:10:16.000Z,8.9
2023-02-13T10:11:32.000Z,8.3
2023-02-13T10:12:48.000Z,7.8
2023-02-13T10:14:05.035Z,8.3
2023-02-13T10:15:21.000Z,8.5
2023-02-13T10:16:37.000Z,7.9
2023-02-13T10:17:53.000Z,9
2023-02-13T10:19:09.000Z,8.4
2023-02-13T10:20:25.000Z,8.4
2023-02-13T10:21:41.000Z,8.7
2023-02-13T10:22:57.000Z,7.8
2023-02-13T10:24:13.000Z,7.9
2023-02-13T10:25:29.000Z,8
2023-02-13T10:26:46.000Z,8.1
2023-02-13T10:28:02.000Z,8.5
2023-02-13T10:29:18.000Z,8.1
2023-02-13T10:30:34.000Z,7.9
2023-02-13T10:31:51.000Z,7.8
2023-02-13T10:33:07.000Z,7.2
2023-02-13T10:34:23.780Z,8.1
2023-02-13T10:35:39.000Z,7.7
2023-02-13T10:36:55.000Z,7.3
2023-02-13T10:38:11.000Z,8.1
2023-02-13T10:39:26.000Z,9.1
2023-02-13T10:40:42.974Z,8.5
2023-02-13T10:41:58.000Z,7.9
2023-02-13T10:43:15.000Z,8.2
2023-02-13T10:44:31.000Z,8.3
2023-02-13T10:45:47.000Z,7.5
2023-02-13T10:47:03.000Z,8.4
2023-02-13T10:48:20.000Z,8
2023-02-13T10:49:35.000Z,8.1
2023-02-13T10:50:50.000Z,8.4
2023-02-13T10:52:06.000Z,9.4
2023-02-13T10:53:23.000Z,7.2
2023-02-13T10:54:38.000Z,7.1
2023-02-13T10:55:53.000Z,7.3
2023-02-13T10:57:09.000Z,7.3
2023-02-13T10:58:26.000Z,7.4
2023-02-13T10:59:42.000Z,7
2023-02-13T11:00:58.000Z,7.2
2023-02-13T11:02:14.000Z,7.6
2023-02-13T11:03:31.000Z,7.6
2023-02-13T11:04:47.000Z,8.1
2023-02-13T11:06:03.000Z,8.3
2023-02-13T11:07:19.000Z,7.6
2023-02-13T11:08:35.000Z,7.7
2023-02-13T11:09:52.000Z,9.6
2023-02-13T11:11:08.000Z,8.3
2023-02-13T11:12:23.000Z,8.1
2023-02-13T11:13:39.000Z,7.5
2023-02-13T11:14:56.000Z,7.2
2023-02-13T11:16:12.631Z,7.6
2023-02-13T11:17:28.845Z,7.3
2023-02-13T11:18:44.000Z,7.7
2023-02-13T11:20:01.000Z,9.8
2023-02-13T11:21:17.000Z,9.3
2023-02-13T11:22:33.000Z,9.7
2023-02-13T11:23:49.000Z,8
2023-02-13T11:25:05.000Z,7.7
2023-02-13T11:26:20.000Z,8
2023-02-13T11:27:35.000Z,7.7
2023-02-13T11:28:50.000Z,9.8
2023-02-13T11:30:07.000Z,9
2023-02-13T11:31:23.000Z,10.6
2023-02-13T11:32:39.000Z,7.2
2023-02-13T11:33:55.000Z,7.6
2023-02-13T11:35:11.000Z,7.8
2023-02-13T11:36:28.000Z,6.9
2023-02-13T11:37:44.000Z,8.6
2023-02-13T11:39:00.000Z,8.8
2023-02-13T11:40:16.000Z,8.2
2023-02-13T11:41:33.000Z,8.6
2023-02-13T11:42:49.000Z,6.5
2023-02-13T11:44:05.000Z,6.5
2023-02-13T11:45:20.000Z,6.2
2023-02-13T11:46:37.000Z,7.8
2023-02-13T11:47:53.000Z,9.9
2023-02-13T11:49:09.000Z,8.6
2023-02-13T11:50:25.000Z,6.3
2023-02-13T11:51:42.000Z,7.1
2023-02-13T11:52:58.000Z,6.9
2023-02-13T11:54:14.000Z,7.2
2023-02-13T11:55:30.932Z,7.4
2023-02-13T11:56:46.000Z,7.2
2023-02-13T11:58:03.000Z,7.5
2023-02-13T11:59:19.000Z,6.9
2023-02-13T12:00:35.000Z,7.3
2023-02-13T12:01:50.000Z,7.1
2023-02-13T12:03:07.347Z,6.1
2023-02-13T12:04:23.000Z,9.2
2023-02-13T12:05:39.000Z,10
2023-02-13T12:06:55.000Z,8.9
2023-02-13T12:08:12.000Z,8.6
2023-02-13T12:09:28.000Z,8.3
2023-02-13T12:10:44.000Z,7.5
2023-02-13T12:12:00.000Z,7.3
2023-02-13T12:13:16.000Z,7.5
2023-02-13T12:14:33.000Z,8
2023-02-13T12:15:49.000Z,8.5
2023-02-13T12:17:05.000Z,7.7
2023-02-13T12:18:20.000Z,7.3
2023-02-13T12:19:37.000Z,7.3
2023-02-13T12:20:53.000Z,13.5
2023-02-13T12:22:09.000Z,8.3
2023-02-13T12:23:25.000Z,8.6
2023-02-13T12:24:42.000Z,7.3
2023-02-13T12:25:58.000Z,7.6
2023-02-13T12:27:14.000Z,6.8
2023-02-13T12:28:30.000Z,7.5
2023-02-13T12:29:47.000Z,7.4
2023-02-13T12:31:03.000Z,7.3
2023-02-13T12:32:19.000Z,6.9
2023-02-13T12:34:52.182Z,7.3
2023-02-13T12:36:07.000Z,7.4
2023-02-13T12:37:23.000Z,7.2
2023-02-13T12:38:39.000Z,8.2
2023-02-13T12:39:55.000Z,7.9
2023-02-13T12:41:12.000Z,8.3
2023-02-13T12:42:28.000Z,8.7
2023-02-13T12:43:44.000Z,8.4
2023-02-13T12:45:00.000Z,8.1
2023-02-13T12:46:17.317Z,8.1
2023-02-13T12:47:33.000Z,8
2023-02-13T12:48:49.000Z,8
2023-02-13T12:51:21.000Z,8
2023-02-13T12:52:37.000Z,9
2023-02-13T12:53:53.000Z,8.1
2023-02-13T12:55:09.000Z,8.2
2023-02-13T12:56:25.000Z,7.9
2023-02-13T12:57:42.000Z,8.2
2023-02-13T12:58:58.000Z,8.4
2023-02-13T13:00:14.000Z,7.8
2023-02-13T13:01:30.000Z,7.9
2023-02-13T13:02:47.000Z,7.6
2023-02-13T13:04:03.000Z,7.4
2023-02-13T13:05:19.000Z,5.5
2023-02-13T13:06:35.000Z,5.6
2023-02-13T13:07:52.000Z,7.6
2023-02-13T13:09:07.000Z,8.8
2023-02-13T13:10:23.000Z,7.9
2023-02-13T13:11:39.000Z,8.4
2023-02-13T13:12:55.000Z,8.3
2023-02-13T13:14:12.000Z,9
2023-02-13T13:15:28.000Z,8.7
2023-02-13T13:16:44.000Z,8.8
2023-02-13T13:18:00.000Z,6.4
2023-02-13T13:19:17.000Z,4.9
2023-02-13T13:20:33.000Z,4.7
2023-02-13T13:21:49.000Z,6
2023-02-13T13:23:05.000Z,8.6
2023-02-13T13:24:22.337Z,7.2
2023-02-13T13:25:38.000Z,5.1
2023-02-13T13:26:53.000Z,4.4
2023-02-13T13:28:09.000Z,4.5
2023-02-13T13:29:26.000Z,7.4
2023-02-13T13:30:42.000Z,8.5
2023-02-13T13:31:58.000Z,5.7
2023-02-13T13:33:14.000Z,5.3
2023-02-13T13:34:30.000Z,4
2023-02-13T13:35:47.000Z,8.9
2023-02-13T13:37:03.686Z,6.5
2023-02-13T13:38:19.000Z,5.2
2023-02-13T13:39:35.000Z,5.1
2023-02-13T13:40:52.000Z,5.4
2023-02-13T13:42:08.000Z,5
2023-02-13T13:43:23.000Z,4.8
2023-02-13T13:44:39.000Z,6.4
2023-02-13T13:45:56.000Z,7.3
2023-02-13T13:47:12.000Z,7.2
2023-02-13T13:48:28.000Z,7.8
2023-02-13T13:49:44.000Z,7.3
2023-02-13T13:51:01.000Z,7.7
2023-02-13T13:52:17.000Z,7.7
2023-02-13T13:53:33.000Z,7.4
2023-02-13T13:54:49.000Z,7.2
2023-02-13T13:56:05.000Z,7.3
2023-02-13T13:57:22.442Z,7.3
2023-02-13T13:58:38.000Z,5.7
2023-02-13T13:59:53.000Z,4.7
2023-02-13T14:01:09.000Z,4.3
2023-02-13T14:02:26.000Z,4.4
2023-02-13T14:03:42.000Z,4.5
2023-02-13T14:04:58.000Z,4.5
2023-02-13T14:06:14.000Z,4.6
2023-02-13T14:07:31.000Z,4.4
2023-02-13T14:08:47.000Z,4.9
2023-02-13T14:10:03.000Z,7.2
2023-02-13T14:11:19.000Z,7
2023-02-13T14:12:35.000Z,7.2
2023-02-13T14:13:52.000Z,6.8
2023-02-13T14:15:08.703Z,7.7
2023-02-13T14:16:23.000Z,5.7
2023-02-13T14:17:39.000Z,5.5
2023-02-13T14:18:56.000Z,4.6
2023-02-13T14:20:12.000Z,4.6
2023-02-13T14:21:28.000Z,7.5
2023-02-13T14:22:44.000Z,6.9
2023-02-13T14:24:01.000Z,7.9
2023-02-13T14:25:17.000Z,6.2
2023-02-13T14:26:33.815Z,6.2
2023-02-13T14:27:49.000Z,4.9
2023-02-13T14:29:06.000Z,5.1
2023-02-13T14:30:22.000Z,4.9
2023-02-13T14:31:38.000Z,5.4
2023-02-13T14:32:53.000Z,5.9
2023-02-13T14:34:09.000Z,5.8
2023-02-13T14:35:26.000Z,5.2
2023-02-13T14:36:42.000Z,5
2023-02-13T14:37:58.000Z,5.2
2023-02-13T14:39:14.000Z,5.5
2023-02-13T14:40:31.000Z,5
2023-02-13T14:41:47.000Z,5.1
2023-02-13T14:43:03.000Z,7.7
2023-02-13T14:44:19.000Z,7.6
2023-02-13T14:45:36.000Z,6.9
2023-02-13T14:46:52.000Z,6.3
2023-02-13T14:48:08.000Z,5.9
2023-02-13T14:49:23.000Z,5.8
2023-02-13T14:50:40.000Z,6.2
2023-02-13T14:51:56.000Z,5.7
2023-02-13T14:53:12.772Z,5.9
2023-02-13T14:54:27.000Z,6.7
2023-02-13T14:55:44.000Z,5.4
2023-02-13T14:57:00.000Z,5.9
2023-02-13T14:58:16.000Z,5.9
2023-02-13T14:59:32.000Z,4.9
2023-02-13T15:00:48.000Z,4.9
2023-02-13T15:02:05.000Z,4.7
2023-02-13T15:03:21.000Z,5.1
2023-02-13T15:04:37.000Z,7.1
2023-02-13T15:05:53.000Z,6.7
2023-02-13T15:07:10.000Z,6.3
2023-02-13T15:08:26.000Z,6
2023-02-13T15:09:42.000Z,12.4
2023-02-13T15:10:57.000Z,6.4
2023-02-13T15:12:14.000Z,5.9
2023-02-13T15:13:30.000Z,5.5
2023-02-13T15:14:46.000Z,6
2023-02-13T15:16:02.000Z,5.3
2023-02-13T15:17:18.000Z,5.3
2023-02-13T15:18:35.000Z,5.4
2023-02-13T15:19:51.000Z,5
2023-02-13T15:21:07.917Z,5.1
2023-02-13T15:22:23.000Z,4.8
2023-02-13T15:23:40.000Z,5.5
2023-02-13T15:24:56.000Z,6.7
2023-02-13T15:26:12.862Z,4.6
2023-02-13T15:27:27.000Z,6.6
2023-02-13T15:28:44.000Z,6.2
2023-02-13T15:30:00.000Z,5.7
2023-02-13T15:31:16.815Z,5.5
2023-02-13T15:32:32.000Z,5
2023-02-13T15:33:49.000Z,5.1
2023-02-13T15:35:05.000Z,5.7
2023-02-13T15:36:21.721Z,5.5
2023-02-13T15:37:37.000Z,5.4
2023-02-13T15:38:53.000Z,6.7
2023-02-13T15:40:10.000Z,5.7
2023-02-13T15:41:26.000Z,5.2
2023-02-13T15:42:42.000Z,5.3
2023-02-13T15:45:14.000Z,5.9
2023-02-13T15:46:30.000Z,5.5
2023-02-13T15:47:46.000Z,5.3
2023-02-13T15:49:02.000Z,5.5
2023-02-13T15:50:19.000Z,5.3
2023-02-13T15:51:35.000Z,5.8
2023-02-13T15:52:51.000Z,5.2
2023-02-13T15:54:07.000Z,5.4
2023-02-13T15:55:24.000Z,5.6
2023-02-13T15:56:40.000Z,6.2
2023-02-13T15:57:56.000Z,6.3
2023-02-13T15:59:12.000Z,6.2
2023-02-13T16:00:27.000Z,5.6
2023-02-13T16:01:44.000Z,5.9
2023-02-13T16:03:00.000Z,6
2023-02-13T16:04:16.000Z,5.3
2023-02-13T16:05:32.000Z,5.9
2023-02-13T16:06:49.000Z,5.8
2023-02-13T16:08:05.000Z,5.7
2023-02-13T16:09:21.000Z,5.7
2023-02-13T16:10:37.000Z,6
2023-02-13T16:11:54.000Z,5.7
2023-02-13T16:13:10.000Z,5.4
2023-02-13T16:14:26.000Z,5.4
2023-02-13T16:15:43.096Z,5.4
2023-02-13T16:16:58.000Z,5.5
2023-02-13T16:18:14.000Z,5.2
2023-02-13T16:19:30.000Z,5.6
2023-02-13T16:20:46.000Z,5.7
2023-02-13T16:23:19.420Z,5.7
2023-02-13T16:24:35.669Z,5.5
2023-02-13T16:25:51.000Z,5.7
2023-02-13T16:27:07.000Z,5.7
2023-02-13T16:28:24.000Z,4.9
2023-02-13T16:29:40.000Z,5.6
2023-02-13T16:30:56.000Z,5.2
2023-02-13T16:32:12.000Z,5.9
2023-02-13T16:33:28.000Z,5.5
2023-02-13T16:34:44.000Z,5.7
2023-02-13T16:36:00.000Z,6.1
2023-02-13T16:37:16.000Z,6.2
2023-02-13T16:38:32.000Z,6.2
2023-02-13T16:39:49.000Z,6.6
2023-02-13T16:41:05.000Z,5.9
2023-02-13T16:42:21.000Z,5.6
2023-02-13T16:43:37.000Z,5.9
2023-02-13T16:44:54.000Z,5.2
2023-02-13T16:46:10.000Z,5.6
2023-02-13T16:47:26.000Z,5.8
2023-02-13T16:48:42.000Z,6
2023-02-13T16:49:58.000Z,6
2023-02-13T16:51:14.000Z,5.5
2023-02-13T16:52:30.000Z,5.9
2023-02-13T16:53:46.000Z,5.6
2023-02-13T16:55:03.000Z,5.5
2023-02-13T16:56:19.512Z,5.7
2023-02-13T16:57:35.000Z,5.8
2023-02-13T16:58:51.000Z,5.8
2023-02-13T17:00:07.248Z,5.6
2023-02-13T17:01:23.000Z,5.5
2023-02-13T17:02:38.000Z,6.2
2023-02-13T17:03:54.000Z,5.6
2023-02-13T17:05:10.000Z,5.9
2023-02-13T17:06:27.447Z,5.8
2023-02-13T17:07:42.000Z,6.2
2023-02-13T17:08:57.000Z,5.7
2023-02-13T17:10:13.000Z,5.7
2023-02-13T17:11:30.000Z,6.1
2023-02-13T17:12:46.000Z,5.3
2023-02-13T17:14:02.000Z,5.4
2023-02-13T17:15:18.000Z,5.7
2023-02-13T17:16:35.000Z,6.2
2023-02-13T17:17:51.000Z,6
2023-02-13T17:19:07.000Z,6.1
2023-02-13T17:20:24.000Z,6.5
2023-02-13T17:21:40.652Z,5.9
2023-02-13T17:22:56.000Z,6.1
2023-02-13T17:24:12.000Z,5.5
2023-02-13T17:25:28.000Z,6
2023-02-13T17:26:44.000Z,6
2023-02-13T17:28:00.000Z,6.3
2023-02-13T17:29:17.000Z,6.3
2023-02-13T17:30:33.000Z,6.1
2023-02-13T17:31:49.000Z,6.1
2023-02-13T17:33:06.000Z,6.5
2023-02-13T17:34:22.000Z,6.5
2023-02-13T17:35:38.000Z,6.3
2023-02-13T17:36:55.134Z,7.2
2023-02-13T17:38:11.000Z,7.2